createdAt,value
2023-09-01T00:06:15.853Z,100726.72
2023-09-01T00:16:20.114Z,100729.00
2023-09-01T00:26:23.477Z,100731.97
2023-09-01T00:36:28.133Z,100733.44
2023-09-01T00:46:32.726Z,100737.88
2023-09-01T00:56:37.149Z,100739.50
2023-09-01T01:06:49.289Z,100743.09
2023-09-01T01:16:54.919Z,100746.47
2023-09-01T01:26:59.060Z,100750.56
2023-09-01T01:37:09.502Z,100754.66
2023-09-01T01:47:14.340Z,100759.25
2023-09-01T01:57:17.723Z,100762.66
2023-09-01T02:07:22.058Z,100765.66
2023-09-01T02:17:24.918Z,100768.88
2023-09-01T02:27:29.310Z,100772.47
2023-09-01T02:37:32.206Z,100776.47
2023-09-01T03:10:23.505Z,100784.72
2023-09-01T03:20:28.037Z,100778.88
2023-09-01T03:30:33.168Z,100774.63
2023-09-01T03:40:37.808Z,100778.06
2023-09-01T03:50:42.448Z,100780.69
2023-09-01T04:00:45.998Z,100783.56
2023-09-01T04:10:51.176Z,100784.94
2023-09-01T04:20:56.462Z,100787.41
2023-09-01T04:31:03.862Z,100791.47
2023-09-01T04:41:07.821Z,100795.00
2023-09-01T04:51:13.591Z,100795.69
2023-09-01T05:01:17.139Z,100798.28
2023-09-01T05:11:21.792Z,100800.31
2023-09-01T05:21:25.033Z,100802.25
2023-09-01T05:31:29.740Z,100803.59
2023-09-01T05:41:34.304Z,100799.84
2023-09-01T05:51:40.551Z,100801.75
2023-09-01T06:01:43.638Z,100802.44
2023-09-01T06:11:48.016Z,100800.59
2023-09-01T06:21:51.835Z,100802.34
2023-09-01T06:31:59.005Z,100803.19
2023-09-01T06:42:05.179Z,100804.19
2023-09-01T06:52:11.550Z,100804.53
2023-09-01T07:02:17.534Z,100803.59
2023-09-01T07:12:25.380Z,100802.13
2023-09-01T07:22:29.185Z,100799.78
2023-09-01T07:32:37.343Z,100800.84
2023-09-01T07:42:41.337Z,100799.16
2023-09-01T07:52:49.196Z,100799.38
2023-09-01T08:02:54.504Z,100800.06
2023-09-01T08:13:02.145Z,100801.03
2023-09-01T08:23:05.993Z,100798.81
2023-09-01T08:33:19.977Z,100797.38
2023-09-01T08:43:24.738Z,100798.03
2023-09-01T08:53:31.346Z,100793.84
2023-09-01T09:03:35.815Z,100794.03
2023-09-01T09:13:41.725Z,100792.63
2023-09-01T09:23:49.539Z,100793.00
2023-09-01T09:33:54.248Z,100792.78
2023-09-01T09:43:58.299Z,100790.94
2023-09-01T09:54:11.794Z,100788.13
2023-09-01T10:04:18.344Z,100782.56
2023-09-01T10:14:30.704Z,100779.06
2023-09-01T10:24:33.576Z,100777.53
2023-09-01T10:34:39.313Z,100775.34
2023-09-01T10:45:13.724Z,100773.47
2023-09-01T10:55:18.723Z,100771.03
2023-09-01T11:05:38.456Z,100768.81
2023-09-01T11:15:50.312Z,100762.38
2023-09-01T11:25:57.090Z,100754.34
2023-09-01T11:36:12.216Z,100751.63
2023-09-01T11:46:20.476Z,100748.38
2023-09-01T11:56:28.426Z,100744.06
2023-09-01T12:06:32.691Z,100738.28
2023-09-01T12:16:42.370Z,100735.34
2023-09-01T12:26:47.706Z,100730.88
2023-09-01T12:36:53.176Z,100727.47
2023-09-01T12:46:56.428Z,100724.22
2023-09-01T12:57:03.236Z,100714.41
2023-09-01T13:07:05.980Z,100708.78
2023-09-01T13:17:12.324Z,100706.47
2023-09-01T13:27:16.347Z,100700.84
2023-09-01T13:37:27.186Z,100694.44
2023-09-01T13:47:30.744Z,100690.44
2023-09-01T13:57:39.034Z,100688.38
2023-09-01T14:07:42.951Z,100686.56
2023-09-01T14:17:50.522Z,100684.28
2023-09-01T14:27:55.677Z,100681.78
2023-09-01T14:38:01.336Z,100673.94
2023-09-01T14:48:05.413Z,100671.38
2023-09-01T14:58:10.341Z,100664.22
2023-09-01T15:08:17.084Z,100658.56
2023-09-01T15:18:30.770Z,100654.94
2023-09-01T15:28:36.897Z,100649.50
2023-09-01T15:38:41.616Z,100647.56
2023-09-01T15:48:48.216Z,100646.44
2023-09-01T15:58:53.493Z,100645.28
2023-09-01T16:08:56.710Z,100642.59
2023-09-01T16:19:04.942Z,100639.72
2023-09-01T16:29:11.713Z,100633.88
2023-09-01T16:39:16.930Z,100632.41
2023-09-01T16:49:22.580Z,100632.66
2023-09-01T16:59:30.886Z,100630.38
2023-09-01T17:09:37.350Z,100630.97
2023-09-01T17:19:46.604Z,100632.06
2023-09-01T17:29:50.526Z,100633.38
2023-09-01T17:40:00.282Z,100633.97
2023-09-01T17:50:09.551Z,100635.06
2023-09-01T18:00:18.018Z,100636.47
2023-09-01T18:10:21.652Z,100634.84
2023-09-01T18:20:33.060Z,100633.97
2023-09-01T18:30:43.973Z,100631.75
2023-09-01T18:40:55.358Z,100629.00
2023-09-01T18:51:19.157Z,100630.22
2023-09-01T19:12:44.492Z,100617.66
2023-09-01T19:35:11.314Z,100618.81
2023-09-01T19:44:31.776Z,100616.59
2023-09-01T19:45:35.570Z,100617.91
2023-09-01T19:55:46.893Z,100617.66
2023-09-01T20:05:54.346Z,100618.78
2023-09-01T20:16:12.368Z,100612.75
2023-09-01T20:26:22.799Z,100613.34
2023-09-01T20:36:48.291Z,100615.31
2023-09-01T20:46:51.257Z,100615.81
2023-09-01T20:56:58.144Z,100619.97
2023-09-01T21:07:04.778Z,100614.84
2023-09-01T21:17:09.862Z,100619.38
2023-09-01T21:27:13.282Z,100619.41
2023-09-01T21:37:17.969Z,100620.38
2023-09-01T21:47:21.843Z,100616.69
2023-09-01T21:57:26.809Z,100619.78
2023-09-01T22:07:29.680Z,100620.03
2023-09-01T22:17:34.004Z,100623.03
2023-09-01T22:27:37.251Z,100624.66
2023-09-01T22:37:49.031Z,100625.34
2023-09-01T22:47:55.767Z,100624.53
2023-09-01T22:58:00.337Z,100622.31
2023-09-01T23:08:11.456Z,100625.22
2023-09-01T23:18:27.583Z,100619.66
2023-09-01T23:28:30.711Z,100624.78
2023-09-01T23:38:38.844Z,100625.47
2023-09-01T23:48:43.021Z,100629.53
2023-09-01T23:58:53.025Z,100631.81
